Portada
METAR-TAF:

METAR-TAF

Aeroports :

Tientsin, Xina

latitud: 39-11N, longitud: 117-21E, altitud: 3 m

Observació

L'informe es va fer fa 23 minuts, a les 10:30 UTC
Vent 4 kt del Oest
Temperatura 8°C
Humitat 46%
Pressió 1026 hPa
Visibilitat: 4000 m
calitja

METAR: ZBTJ 211030Z 27002MPS 4000 HZ NSC 08/M03 Q1026 NOSIG

Hora: 18:53 (10:53 UTC)

Pronòstic

L'informe es va fer fa 7 hores i 51 minuts, a les 03:02 UTC
Pronòstic vàlid del 21 a les 06 UTC al 22 a les 06 UTC
Vent 10 kt del Nord-Oest
Visibilitat: 3000 m
calitja
Evolucionant progressivament
l' 21 a les 09 UTC al 21 a les 10 UTC
Visibilitat: 2500 m
boirina
Evolucionant progressivament
l' 21 a les 14 UTC al 21 a les 15 UTC
Visibilitat: 3000 m

TAF: ZBTJ 210302Z 2106/2206 31005MPS 3000 HZ NSC TX06/2107Z TNM01/2122Z BECMG 2109/2110 2500 BR BECMG 2114/2115 3000

Observacions i pronòstics meteorològics de més de 4000 aeroports (METAR i TAF).

Les estacions disponibles són els punts grocs i vermells al mapa.

Posi el ratolí al punt desitjat per veure el nom de l'estació.

Feu clic per veure les observacions i els pronòstics meteorològics.

Per canviar el mapa: feu clic els botons verds amb una creu de color negre per apropar; al botó verd amb un guió per allunyar la imatge; o en les fletxes verdes per a mapes adjacents.


METAR-TAF: